Royalton, Vermont
Current Conditions -  °F | °C
As of 6:53 AM on Thursday 27 Nov 2014 (Local Time) from KLEB Reporting Station
Overcast Overcast  
Wind Chill: 24°   Ceiling: 2400
Heat Index: 30°   Visibility: 10mi
Dew Point: 24°   Wind: 6mph
Humidity: 79%   Direction: 350°N
Pressure: 29.88"   Gusts: NA
Location:  43.7658°N, 72.5431°W
Report Text: KLEB 271153Z 35005KT 10SM OVC024 M01/M04 A2988 RMK AO2 SLP127 60003 70080 T10111044 11006 21017 51018
Loading
Personal Weather Stations






























Interactive Weather Map New forecast layout! Learn more

10-Day Weather Forecast

Advertisements
Track Severe Weather on mobile